^^
Grace C. Lehan Memorial Weather Station Historical Data
Daily Summary for July 17, 2022 Units:  Both    English   Metric
Daily Weekly Monthly Yearly
  High: Low: Average:
Temperature: 70.7 °F /  21.5 °C 53.3 °F /  11.8 °C 62.4 °F /  16.9 °C
Dew Point: 56.9 °F /  13.8 °C 49.7 °F /  9.8 °C 53.3 °F /  11.8 °C
Humidity: 90% 51.4% 74%
Wind Speed: 2.1mph /  3.4km/h - 0.1mph /  0.2km/h
Wind Gust: 6mph /  9.7km/h - -
Wind- - ESE
Pressure: 30.28 in /  1025.3 hPa 30.12 in /  1019.9 hPa -
Precipitation: 0.00 in /  0 mm    
 
 
Tabular Data for July 17, 2022
Time Temperature Dew Point Pressure Wind Wind Speed Wind Gust Humidity Rainfall Rate (Hourly) solar
00:04 58.8 °F /  14.9 °C 53.2 °F /  11.8 °C 30.18in /  1021.9hPa Calm     81.8% 0.00in /  0mm 0 W/m2
00:09 58.6 °F /  14.8 °C 53.2 °F /  11.8 °C 30.18in /  1021.9hPa Calm     82% 0.00in /  0mm 0 W/m2
00:14 58.5 °F /  14.7 °C 53 °F /  11.7 °C 30.18in /  1021.9hPa Calm     82.1% 0.00in /  0mm 0 W/m2
00:19 58.3 °F /  14.6 °C 53.2 °F /  11.8 °C 30.18in /  1021.9hPa Calm     83% 0.00in /  0mm 0 W/m2
00:24 58.1 °F /  14.5 °C 53 °F /  11.7 °C 30.18in /  1021.9hPa Calm     83% 0.00in /  0mm 0 W/m2
00:29 57.9 °F /  14.4 °C 52.8 °F /  11.6 °C 30.18in /  1021.9hPa Calm     83.1% 0.00in /  0mm 0 W/m2
00:34 57.7 °F /  14.3 °C 52.9 °F /  11.6 °C 30.19in /  1022.2hPa Calm     84% 0.00in /  0mm 0 W/m2
00:39 57.5 °F /  14.2 °C 52.8 °F /  11.6 °C 30.19in /  1022.2hPa Calm     84.3% 0.00in /  0mm 0 W/m2
00:44 57.3 °F /  14.1 °C 52.9 °F /  11.6 °C 30.19in /  1022.2hPa Calm     85% 0.00in /  0mm 0 W/m2
00:49 57.2 °F /  14 °C 52.7 °F /  11.5 °C 30.19in /  1022.2hPa Calm     85% 0.00in /  0mm 0 W/m2
00:54 57.1 °F /  13.9 °C 52.6 °F /  11.4 °C 30.19in /  1022.2hPa Calm     85.1% 0.00in /  0mm 0 W/m2
00:59 56.9 °F /  13.8 °C 52.8 °F /  11.6 °C 30.19in /  1022.2hPa Calm   1mph /  1.6km/h 86% 0.00in /  0mm 0 W/m2
01:04 56.8 °F /  13.8 °C 52.7 °F /  11.5 °C 30.19in /  1022.2hPa Calm   1mph /  1.6km/h 86% 0.00in /  0mm 0 W/m2
01:09 56.7 °F /  13.7 °C 52.6 °F /  11.4 °C 30.19in /  1022.2hPa Calm     86% 0.00in /  0mm 0 W/m2
01:14 56.6 °F /  13.7 °C 52.5 °F /  11.4 °C 30.20in /  1022.6hPa Calm     86% 0.00in /  0mm 0 W/m2
01:19 56.4 °F /  13.6 °C 52.6 °F /  11.4 °C 30.19in /  1022.2hPa Calm     87% 0.00in /  0mm 0 W/m2
01:24 56.3 °F /  13.5 °C 52.5 °F /  11.4 °C 30.20in /  1022.6hPa Calm     87% 0.00in /  0mm 0 W/m2
01:29 56.2 °F /  13.4 °C 52.4 °F /  11.3 °C 30.20in /  1022.6hPa Calm     87% 0.00in /  0mm 0 W/m2
01:34 56.1 °F /  13.4 °C 52.3 °F /  11.3 °C 30.19in /  1022.2hPa Calm     87% 0.00in /  0mm 0 W/m2
01:39 56 °F /  13.3 °C 52.2 °F /  11.2 °C 30.20in /  1022.6hPa Calm     87% 0.00in /  0mm 0 W/m2
01:44 56 °F /  13.3 °C 52.2 °F /  11.2 °C 30.20in /  1022.6hPa Calm     87% 0.00in /  0mm 0 W/m2
01:49 55.9 °F /  13.3 °C 52.1 °F /  11.2 °C 30.20in /  1022.6hPa Calm     87% 0.00in /  0mm 0 W/m2
01:54 55.9 °F /  13.3 °C 52.1 °F /  11.2 °C 30.20in /  1022.6hPa Calm     87% 0.00in /  0mm 0 W/m2
01:59 55.9 °F /  13.3 °C 52.1 °F /  11.2 °C 30.20in /  1022.6hPa Calm     87% 0.00in /  0mm 0 W/m2
02:04 55.9 °F /  13.3 °C 52.1 °F /  11.2 °C 30.20in /  1022.6hPa Calm     87% 0.00in /  0mm 0 W/m2
02:09 55.8 °F /  13.2 °C 52 °F /  11.1 °C 30.19in /  1022.2hPa Calm     87% 0.00in /  0mm 0 W/m2
02:14 55.8 °F /  13.2 °C 52 °F /  11.1 °C 30.19in /  1022.2hPa Calm     87% 0.00in /  0mm 0 W/m2
02:19 55.8 °F /  13.2 °C 52 °F /  11.1 °C 30.19in /  1022.2hPa Calm     87% 0.00in /  0mm 0 W/m2
02:24 55.8 °F /  13.2 °C 52 °F /  11.1 °C 30.19in /  1022.2hPa Calm     87% 0.00in /  0mm 0 W/m2
02:29 55.8 °F /  13.2 °C 52 °F /  11.1 °C 30.19in /  1022.2hPa Calm     87% 0.00in /  0mm 0 W/m2
02:34 55.9 °F /  13.3 °C 52.3 °F /  11.3 °C 30.20in /  1022.6hPa Calm   1mph /  1.6km/h 87.7% 0.00in /  0mm 0 W/m2
02:39 55.9 °F /  13.3 °C 52.1 °F /  11.2 °C 30.20in /  1022.6hPa Calm   1mph /  1.6km/h 87% 0.00in /  0mm 0 W/m2
02:44 55.9 °F /  13.3 °C 52.1 °F /  11.2 °C 30.20in /  1022.6hPa Calm   1mph /  1.6km/h 87% 0.00in /  0mm 0 W/m2
02:49 55.9 °F /  13.3 °C 52.1 °F /  11.2 °C 30.20in /  1022.6hPa Calm   1mph /  1.6km/h 87% 0.00in /  0mm 0 W/m2
02:54 55.8 °F /  13.2 °C 52 °F /  11.1 °C 30.21in /  1022.9hPa Calm   1mph /  1.6km/h 87% 0.00in /  0mm 0 W/m2
02:59 55.8 °F /  13.2 °C 52 °F /  11.1 °C 30.21in /  1022.9hPa Calm   1mph /  1.6km/h 87% 0.00in /  0mm 0 W/m2
03:04 55.7 °F /  13.2 °C 51.9 °F /  11.1 °C 30.21in /  1022.9hPa Calm   1mph /  1.6km/h 87% 0.00in /  0mm 0 W/m2
03:09 55.7 °F /  13.2 °C 51.9 °F /  11.1 °C 30.21in /  1022.9hPa Calm     87% 0.00in /  0mm 0 W/m2
03:14 55.6 °F /  13.1 °C 51.8 °F /  11 °C 30.21in /  1022.9hPa Calm     87% 0.00in /  0mm 0 W/m2
03:19 55.5 °F /  13.1 °C 51.7 °F /  10.9 °C 30.21in /  1022.9hPa Calm     87% 0.00in /  0mm 0 W/m2
03:24 55.4 °F /  13 °C 51.6 °F /  10.9 °C 30.21in /  1022.9hPa Calm     87% 0.00in /  0mm 0 W/m2
03:29 55.3 °F /  12.9 °C 51.6 °F /  10.9 °C 30.21in /  1022.9hPa Calm     87.1% 0.00in /  0mm 0 W/m2
03:34 55.3 °F /  12.9 °C 51.8 °F /  11 °C 30.21in /  1022.9hPa Calm     88% 0.00in /  0mm 0 W/m2
03:39 55.2 °F /  12.9 °C 51.7 °F /  10.9 °C 30.21in /  1022.9hPa WNW 0.1mph /  0.2km/h 2mph /  3.2km/h 88% 0.00in /  0mm 0 W/m2
03:44 55.1 °F /  12.8 °C 51.6 °F /  10.9 °C 30.21in /  1022.9hPa Calm   2mph /  3.2km/h 88% 0.00in /  0mm 0 W/m2
03:49 55 °F /  12.8 °C 51.5 °F /  10.8 °C 30.21in /  1022.9hPa Calm   2mph /  3.2km/h 88% 0.00in /  0mm 0 W/m2
03:54 54.9 °F /  12.7 °C 51.5 °F /  10.8 °C 30.21in /  1022.9hPa Calm   2mph /  3.2km/h 88% 0.00in /  0mm 0 W/m2
03:58 54.9 °F /  12.7 °C 51.3 °F /  10.7 °C 30.21in /  1022.9hPa Calm   2mph /  3.2km/h 87.7% 0.00in /  0mm 0 W/m2
04:04 54.7 °F /  12.6 °C 51.2 °F /  10.7 °C 30.21in /  1022.9hPa Calm     88% 0.00in /  0mm 0 W/m2
04:09 54.7 °F /  12.6 °C 51.2 °F /  10.7 °C 30.22in /  1023.2hPa Calm     88% 0.00in /  0mm 0 W/m2
04:14 54.6 °F /  12.6 °C 51.1 °F /  10.6 °C 30.22in /  1023.2hPa Calm     88% 0.00in /  0mm 0 W/m2
04:19 54.6 °F /  12.6 °C 51.1 °F /  10.6 °C 30.22in /  1023.2hPa Calm     88% 0.00in /  0mm 0 W/m2
04:24 54.5 °F /  12.5 °C 51 °F /  10.6 °C 30.22in /  1023.2hPa Calm     88% 0.00in /  0mm 0 W/m2
04:29 54.4 °F /  12.4 °C 50.9 °F /  10.5 °C 30.23in /  1023.6hPa Calm     88% 0.00in /  0mm 0 W/m2
04:34 54.4 °F /  12.4 °C 50.9 °F /  10.5 °C 30.23in /  1023.6hPa Calm     88% 0.00in /  0mm 0 W/m2
04:39 54.3 °F /  12.4 °C 50.8 °F /  10.4 °C 30.23in /  1023.6hPa Calm     88% 0.00in /  0mm 0 W/m2
04:44 54.2 °F /  12.3 °C 50.7 °F /  10.4 °C 30.23in /  1023.6hPa Calm     88% 0.00in /  0mm 0 W/m2
04:49 54.1 °F /  12.3 °C 50.5 °F /  10.3 °C 30.23in /  1023.6hPa Calm     87.4% 0.00in /  0mm 0 W/m2
04:54 54.1 °F /  12.3 °C 50.4 °F /  10.2 °C 30.23in /  1023.6hPa Calm     87.3% 0.00in /  0mm 0 W/m2
04:59 54 °F /  12.2 °C 50.5 °F /  10.3 °C 30.24in /  1023.9hPa Calm     88% 0.00in /  0mm 0 W/m2
05:04 53.9 °F /  12.2 °C 50.4 °F /  10.2 °C 30.24in /  1023.9hPa Calm     88% 0.00in /  0mm 0 W/m2
05:09 53.8 °F /  12.1 °C 50.3 °F /  10.2 °C 30.24in /  1023.9hPa Calm     88% 0.00in /  0mm 0 W/m2
05:14 53.7 °F /  12.1 °C 50.2 °F /  10.1 °C 30.24in /  1023.9hPa Calm     88% 0.00in /  0mm 0 W/m2
05:19 53.6 °F /  12 °C 50.2 °F /  10.1 °C 30.24in /  1023.9hPa Calm     88% 0.00in /  0mm 0 W/m2
05:24 53.6 °F /  12 °C 50.1 °F /  10.1 °C 30.24in /  1023.9hPa Calm     88% 0.00in /  0mm 0 W/m2
05:29 53.6 °F /  12 °C 50.3 °F /  10.2 °C 30.24in /  1023.9hPa Calm     88.7% 0.00in /  0mm 0 W/m2
05:34 53.5 °F /  11.9 °C 50.4 °F /  10.2 °C 30.24in /  1023.9hPa Calm     89% 0.00in /  0mm 0 W/m2
05:39 53.5 °F /  11.9 °C 50.3 °F /  10.2 °C 30.24in /  1023.9hPa Calm     89% 0.00in /  0mm 0 W/m2
05:44 53.5 °F /  11.9 °C 50.3 °F /  10.2 °C 30.24in /  1023.9hPa Calm     89% 0.00in /  0mm 0 W/m2
05:49 53.5 °F /  11.9 °C 50.3 °F /  10.2 °C 30.24in /  1023.9hPa Calm     89% 0.00in /  0mm 0 W/m2
05:53 53.5 °F /  11.9 °C 50.3 °F /  10.2 °C 30.24in /  1023.9hPa Calm     89% 0.00in /  0mm 0 W/m2
05:59 53.4 °F /  11.9 °C 50.3 °F /  10.2 °C 30.24in /  1023.9hPa Calm     89% 0.00in /  0mm 0 W/m2
06:04 53.4 °F /  11.9 °C 50.3 °F /  10.2 °C 30.24in /  1023.9hPa Calm     89.1% 0.00in /  0mm 0 W/m2
06:09 53.3 °F /  11.8 °C 50.2 °F /  10.1 °C 30.24in /  1023.9hPa Calm     89.1% 0.00in /  0mm 0 W/m2
06:14 53.3 °F /  11.8 °C 50.2 °F /  10.1 °C 30.24in /  1023.9hPa Calm     89% 0.00in /  0mm 0 W/m2
06:19 53.3 °F /  11.8 °C 50.3 °F /  10.2 °C 30.25in /  1024.3hPa Calm     89.7% 0.00in /  0mm 0 W/m2
06:24 53.3 °F /  11.8 °C 50.5 °F /  10.3 °C 30.25in /  1024.3hPa Calm     90% 0.00in /  0mm 0 W/m2
06:29 53.3 °F /  11.8 °C 50.5 °F /  10.3 °C 30.25in /  1024.3hPa Calm     90% 0.00in /  0mm 0 W/m2
06:34 53.3 °F /  11.8 °C 50.5 °F /  10.3 °C 30.25in /  1024.3hPa Calm     90% 0.00in /  0mm 7 W/m2
06:39 53.3 °F /  11.8 °C 50.5 °F /  10.3 °C 30.25in /  1024.3hPa Calm     90% 0.00in /  0mm 11 W/m2
06:44 53.3 °F /  11.8 °C 50.5 °F /  10.3 °C 30.25in /  1024.3hPa Calm     90% 0.00in /  0mm 14 W/m2
06:49 53.3 °F /  11.8 °C 50.5 °F /  10.3 °C 30.25in /  1024.3hPa Calm     90% 0.00in /  0mm 18 W/m2
06:54 53.3 °F /  11.8 °C 50.5 °F /  10.3 °C 30.25in /  1024.3hPa Calm     90% 0.00in /  0mm 21 W/m2
06:59 53.4 °F /  11.9 °C 50.5 °F /  10.3 °C 30.25in /  1024.3hPa Calm     90% 0.00in /  0mm 25 W/m2
07:04 53.4 °F /  11.9 °C 50.6 °F /  10.3 °C 30.26in /  1024.6hPa Calm     90% 0.00in /  0mm 30 W/m2
07:09 53.5 °F /  11.9 °C 50.6 °F /  10.3 °C 30.26in /  1024.6hPa Calm     90% 0.00in /  0mm 39 W/m2
07:14 53.5 °F /  11.9 °C 50.7 °F /  10.4 °C 30.26in /  1024.6hPa Calm     90% 0.00in /  0mm 46 W/m2
07:19 53.6 °F /  12 °C 50.8 °F /  10.4 °C 30.26in /  1024.6hPa Calm     90% 0.00in /  0mm 53 W/m2
07:24 53.8 °F /  12.1 °C 51 °F /  10.6 °C 30.26in /  1024.6hPa WNW 0.2mph /  0.3km/h 3mph /  4.8km/h 90% 0.00in /  0mm 54 W/m2
07:29 54 °F /  12.2 °C 51.1 °F /  10.6 °C 30.27in /  1024.9hPa Calm   3mph /  4.8km/h 89.9% 0.00in /  0mm 51 W/m2
07:34 54.1 °F /  12.3 °C 51 °F /  10.6 °C 30.27in /  1024.9hPa Calm   3mph /  4.8km/h 89% 0.00in /  0mm 62 W/m2
07:39 54.3 °F /  12.4 °C 51.1 °F /  10.6 °C 30.27in /  1024.9hPa NW 0.3mph /  0.5km/h 5mph /  8km/h 89% 0.00in /  0mm 84 W/m2
07:44 54.5 °F /  12.5 °C 51.2 °F /  10.7 °C 30.27in /  1024.9hPa NW 0.2mph /  0.3km/h 5mph /  8km/h 88.6% 0.00in /  0mm 98 W/m2
07:49 54.8 °F /  12.7 °C 51.3 °F /  10.7 °C 30.27in /  1024.9hPa NW 0.2mph /  0.3km/h 5mph /  8km/h 88% 0.00in /  0mm 107 W/m2
07:54 55 °F /  12.8 °C 51.2 °F /  10.7 °C 30.27in /  1024.9hPa Calm   5mph /  8km/h 87% 0.00in /  0mm 104 W/m2
07:59 55.2 °F /  12.9 °C 51.1 °F /  10.6 °C 30.27in /  1024.9hPa NNW 0.1mph /  0.2km/h 5mph /  8km/h 86% 0.00in /  0mm 98 W/m2
08:00 55.4 °F /  13 °C 51.3 °F /  10.7 °C 30.27in /  1024.9hPa Calm   5mph /  8km/h 86% 0.00in /  0mm 95 W/m2
08:09 55.8 °F /  13.2 °C 51.3 °F /  10.7 °C 30.26in /  1024.6hPa North 0.3mph /  0.5km/h 4mph /  6.4km/h 85% 0.00in /  0mm 109 W/m2
08:14 55.9 °F /  13.3 °C 51.2 °F /  10.7 °C 30.27in /  1024.9hPa Calm   4mph /  6.4km/h 84% 0.00in /  0mm 102 W/m2
08:19 56.1 °F /  13.4 °C 51.4 °F /  10.8 °C 30.27in /  1024.9hPa Calm   4mph /  6.4km/h 84% 0.00in /  0mm 98 W/m2
08:24 56.3 °F /  13.5 °C 51.5 °F /  10.8 °C 30.27in /  1024.9hPa Calm   4mph /  6.4km/h 83.8% 0.00in /  0mm 113 W/m2
08:29 56.6 °F /  13.7 °C 51.5 °F /  10.8 °C 30.27in /  1024.9hPa Calm   4mph /  6.4km/h 83% 0.00in /  0mm 156 W/m2
08:34 56.8 °F /  13.8 °C 51.4 °F /  10.8 °C 30.27in /  1024.9hPa Calm   4mph /  6.4km/h 82.3% 0.00in /  0mm 156 W/m2
08:39 56.9 °F /  13.8 °C 51.5 °F /  10.8 °C 30.27in /  1024.9hPa North 0.2mph /  0.3km/h 4mph /  6.4km/h 82% 0.00in /  0mm 88 W/m2
08:44 57.1 °F /  13.9 °C 51.4 °F /  10.8 °C 30.27in /  1024.9hPa North 0.3mph /  0.5km/h 5mph /  8km/h 81.2% 0.00in /  0mm 90 W/m2
08:49 57.2 °F /  14 °C 51.3 °F /  10.7 °C 30.27in /  1024.9hPa NNE 0.3mph /  0.5km/h 5mph /  8km/h 80.8% 0.00in /  0mm 186 W/m2
08:54 57.3 °F /  14.1 °C 51.2 °F /  10.7 °C 30.28in /  1025.3hPa NNE 0.3mph /  0.5km/h 5mph /  8km/h 80% 0.00in /  0mm 403 W/m2
08:59 57.6 °F /  14.2 °C 51.3 °F /  10.7 °C 30.28in /  1025.3hPa NNE 0.4mph /  0.6km/h 5mph /  8km/h 79.6% 0.00in /  0mm 417 W/m2
09:04 58.2 °F /  14.6 °C 51.6 °F /  10.9 °C 30.27in /  1024.9hPa NE 0.4mph /  0.6km/h 6mph /  9.7km/h 78.6% 0.00in /  0mm 436 W/m2
09:09 58.9 °F /  14.9 °C 51.6 °F /  10.9 °C 30.28in /  1025.3hPa NE 0.5mph /  0.8km/h 6mph /  9.7km/h 76.5% 0.00in /  0mm 448 W/m2
09:14 59.7 °F /  15.4 °C 52 °F /  11.1 °C 30.28in /  1025.3hPa North 0.2mph /  0.3km/h 6mph /  9.7km/h 75.6% 0.00in /  0mm 464 W/m2
09:19 60.6 °F /  15.9 °C 52.6 °F /  11.4 °C 30.27in /  1024.9hPa NW 0.1mph /  0.2km/h 6mph /  9.7km/h 75% 0.00in /  0mm 482 W/m2
09:24 61.5 °F /  16.4 °C 52.1 °F /  11.2 °C 30.27in /  1024.9hPa ENE 0.7mph /  1.1km/h 6mph /  9.7km/h 71.2% 0.00in /  0mm 499 W/m2
09:29 62.3 °F /  16.8 °C 52.7 °F /  11.5 °C 30.27in /  1024.9hPa Calm   6mph /  9.7km/h 70.9% 0.00in /  0mm 508 W/m2
09:34 63.1 °F /  17.3 °C 53.1 °F /  11.7 °C 30.27in /  1024.9hPa East 0.3mph /  0.5km/h 6mph /  9.7km/h 69.7% 0.00in /  0mm 520 W/m2
09:39 63.8 °F /  17.7 °C 52.5 °F /  11.4 °C 30.27in /  1024.9hPa East 0.4mph /  0.6km/h 5mph /  8km/h 66.6% 0.00in /  0mm 536 W/m2
09:44 64.2 °F /  17.9 °C 52.5 °F /  11.4 °C 30.27in /  1024.9hPa ENE 1.1mph /  1.8km/h 5mph /  8km/h 65.8% 0.00in /  0mm 547 W/m2
09:49 64.5 °F /  18.1 °C 52.2 °F /  11.2 °C 30.27in /  1024.9hPa Calm   5mph /  8km/h 64.2% 0.00in /  0mm 561 W/m2
09:54 64.9 °F /  18.3 °C 51.9 °F /  11.1 °C 30.26in /  1024.6hPa ENE 0.3mph /  0.5km/h 5mph /  8km/h 62.5% 0.00in /  0mm 571 W/m2
09:59 65.5 °F /  18.6 °C 52.3 °F /  11.3 °C 30.26in /  1024.6hPa ENE 0.1mph /  0.2km/h 5mph /  8km/h 62.2% 0.00in /  0mm 580 W/m2
10:04 66.1 °F /  18.9 °C 52.9 °F /  11.6 °C 30.27in /  1024.9hPa ENE 0.1mph /  0.2km/h 5mph /  8km/h 62.3% 0.00in /  0mm 591 W/m2
10:09 66.6 °F /  19.2 °C 52.7 °F /  11.5 °C 30.26in /  1024.6hPa ENE 0.5mph /  0.8km/h 3mph /  4.8km/h 60.9% 0.00in /  0mm 601 W/m2
10:14 66.8 °F /  19.3 °C 52.1 °F /  11.2 °C 30.27in /  1024.9hPa ENE 0.7mph /  1.1km/h 3mph /  4.8km/h 59.1% 0.00in /  0mm 612 W/m2
10:19 66.8 °F /  19.3 °C 52.4 °F /  11.3 °C 30.27in /  1024.9hPa ENE 0.2mph /  0.3km/h 3mph /  4.8km/h 59.8% 0.00in /  0mm 622 W/m2
10:24 66.9 °F /  19.4 °C 52.2 °F /  11.2 °C 30.27in /  1024.9hPa ENE 0.1mph /  0.2km/h 3mph /  4.8km/h 59.2% 0.00in /  0mm 661 W/m2
10:29 67.2 °F /  19.6 °C 52.3 °F /  11.3 °C 30.27in /  1024.9hPa ENE 0.2mph /  0.3km/h 3mph /  4.8km/h 58.8% 0.00in /  0mm 694 W/m2
10:34 67.5 °F /  19.7 °C 52.3 °F /  11.3 °C 30.27in /  1024.9hPa ENE 0.1mph /  0.2km/h 3mph /  4.8km/h 58.2% 0.00in /  0mm 698 W/m2
10:39 68 °F /  20 °C 53.1 °F /  11.7 °C 30.27in /  1024.9hPa ENE 0.1mph /  0.2km/h 3mph /  4.8km/h 58.9% 0.00in /  0mm 663 W/m2
10:44 68.3 °F /  20.2 °C 52.5 °F /  11.4 °C 30.27in /  1024.9hPa ENE 0.3mph /  0.5km/h 3mph /  4.8km/h 57% 0.00in /  0mm 673 W/m2
10:49 68.1 °F /  20.1 °C 51.4 °F /  10.8 °C 30.27in /  1024.9hPa ENE 0.3mph /  0.5km/h 4mph /  6.4km/h 55.1% 0.00in /  0mm 686 W/m2
10:54 67.9 °F /  19.9 °C 51.8 °F /  11 °C 30.27in /  1024.9hPa ENE 0.1mph /  0.2km/h 4mph /  6.4km/h 56.4% 0.00in /  0mm 693 W/m2
10:59 67.9 °F /  19.9 °C 51.4 °F /  10.8 °C 30.27in /  1024.9hPa ENE 0.4mph /  0.6km/h 4mph /  6.4km/h 55.5% 0.00in /  0mm 700 W/m2
11:04 68.2 °F /  20.1 °C 51.6 °F /  10.9 °C 30.27in /  1024.9hPa ENE 0.1mph /  0.2km/h 4mph /  6.4km/h 55.2% 0.00in /  0mm 712 W/m2
11:09 68.6 °F /  20.3 °C 50.7 °F /  10.4 °C 30.27in /  1024.9hPa Calm   2mph /  3.2km/h 52.8% 0.00in /  0mm 722 W/m2
11:14 68.7 °F /  20.4 °C 51.6 °F /  10.9 °C 30.27in /  1024.9hPa ENE 0.7mph /  1.1km/h 4mph /  6.4km/h 54.5% 0.00in /  0mm 729 W/m2
11:19 68.9 °F /  20.5 °C 50.3 °F /  10.2 °C 30.27in /  1024.9hPa ENE 0.1mph /  0.2km/h 4mph /  6.4km/h 51.5% 0.00in /  0mm 737 W/m2
11:24 68.5 °F /  20.3 °C 50 °F /  10 °C 30.27in /  1024.9hPa East 0.1mph /  0.2km/h 4mph /  6.4km/h 51.7% 0.00in /  0mm 742 W/m2
11:29 68.2 °F /  20.1 °C 49.7 °F /  9.8 °C 30.26in /  1024.6hPa ENE 0.5mph /  0.8km/h 4mph /  6.4km/h 51.6% 0.00in /  0mm 744 W/m2
11:34 68.4 °F /  20.2 °C 50.5 °F /  10.3 °C 30.26in /  1024.6hPa ENE 0.1mph /  0.2km/h 4mph /  6.4km/h 52.8% 0.00in /  0mm 703 W/m2
11:39 68.7 °F /  20.4 °C 50.8 °F /  10.4 °C 30.26in /  1024.6hPa ENE 0.2mph /  0.3km/h 3mph /  4.8km/h 52.8% 0.00in /  0mm 200 W/m2
11:43 68.8 °F /  20.4 °C 51 °F /  10.6 °C 30.26in /  1024.6hPa ENE 2.1mph /  3.4km/h 5mph /  8km/h 53% 0.00in /  0mm 105 W/m2
11:49 68.6 °F /  20.3 °C 50 °F /  10 °C 30.26in /  1024.6hPa ENE 0.4mph /  0.6km/h 5mph /  8km/h 51.4% 0.00in /  0mm 123 W/m2
11:54 68.2 °F /  20.1 °C 50.3 °F /  10.2 °C 30.26in /  1024.6hPa Calm   5mph /  8km/h 52.6% 0.00in /  0mm 97 W/m2
11:59 68.1 °F /  20.1 °C 50.9 °F /  10.5 °C 30.25in /  1024.3hPa ENE 0.1mph /  0.2km/h 5mph /  8km/h 54.2% 0.00in /  0mm 114 W/m2
12:00 68 °F /  20 °C 52.2 °F /  11.2 °C 30.25in /  1024.3hPa Calm   5mph /  8km/h 57% 0.00in /  0mm 81 W/m2
12:09 68.1 °F /  20.1 °C 51.4 °F /  10.8 °C 30.25in /  1024.3hPa Calm     55% 0.00in /  0mm 90 W/m2
12:14 68.1 °F /  20.1 °C 51.7 °F /  10.9 °C 30.25in /  1024.3hPa ENE 0.1mph /  0.2km/h 1mph /  1.6km/h 55.6% 0.00in /  0mm 125 W/m2
12:19 68.2 °F /  20.1 °C 51.8 °F /  11 °C 30.25in /  1024.3hPa ENE 0.3mph /  0.5km/h 4mph /  6.4km/h 55.7% 0.00in /  0mm 301 W/m2
12:24 68.3 °F /  20.2 °C 52 °F /  11.1 °C 30.25in /  1024.3hPa Calm   4mph /  6.4km/h 56% 0.00in /  0mm 308 W/m2
12:29 68.5 °F /  20.3 °C 51.7 °F /  10.9 °C 30.25in /  1024.3hPa Calm   4mph /  6.4km/h 54.9% 0.00in /  0mm 352 W/m2
12:34 68.9 °F /  20.5 °C 51.8 °F /  11 °C 30.25in /  1024.3hPa Calm   4mph /  6.4km/h 54.5% 0.00in /  0mm 362 W/m2
12:39 69.1 °F /  20.6 °C 53.1 °F /  11.7 °C 30.25in /  1024.3hPa NE 0.3mph /  0.5km/h 4mph /  6.4km/h 56.7% 0.00in /  0mm 366 W/m2
12:44 69.4 °F /  20.8 °C 53.1 °F /  11.7 °C 30.25in /  1024.3hPa Calm   4mph /  6.4km/h 56.1% 0.00in /  0mm 366 W/m2
12:49 69.4 °F /  20.8 °C 52.6 °F /  11.4 °C 30.24in /  1023.9hPa Calm   4mph /  6.4km/h 55% 0.00in /  0mm 350 W/m2
12:54 69.5 °F /  20.8 °C 53 °F /  11.7 °C 30.24in /  1023.9hPa Calm   4mph /  6.4km/h 55.8% 0.00in /  0mm 339 W/m2
12:59 69.3 °F /  20.7 °C 51.7 °F /  10.9 °C 30.24in /  1023.9hPa Calm   4mph /  6.4km/h 53.5% 0.00in /  0mm 316 W/m2
13:04 69 °F /  20.6 °C 52.4 °F /  11.3 °C 30.24in /  1023.9hPa Calm   4mph /  6.4km/h 55.5% 0.00in /  0mm 341 W/m2
13:09 68.9 °F /  20.5 °C 52.9 °F /  11.6 °C 30.24in /  1023.9hPa Calm     56.6% 0.00in /  0mm 338 W/m2
13:14 69 °F /  20.6 °C 53.2 °F /  11.8 °C 30.24in /  1023.9hPa Calm     57.2% 0.00in /  0mm 357 W/m2
13:19 69.2 °F /  20.7 °C 52.9 °F /  11.6 °C 30.24in /  1023.9hPa Calm     56.1% 0.00in /  0mm 373 W/m2
13:24 69.4 °F /  20.8 °C 52.7 °F /  11.5 °C 30.24in /  1023.9hPa Calm     55.3% 0.00in /  0mm 387 W/m2
13:29 69.4 °F /  20.8 °C 52.6 °F /  11.4 °C 30.23in /  1023.6hPa Calm     55% 0.00in /  0mm 387 W/m2
13:34 69.5 °F /  20.8 °C 53.7 °F /  12.1 °C 30.23in /  1023.6hPa Calm     57.1% 0.00in /  0mm 355 W/m2
13:39 69.6 °F /  20.9 °C 53.7 °F /  12.1 °C 30.23in /  1023.6hPa Calm   2mph /  3.2km/h 56.8% 0.00in /  0mm 338 W/m2
13:44 69.8 °F /  21 °C 53.8 °F /  12.1 °C 30.23in /  1023.6hPa North 0.2mph /  0.3km/h 2mph /  3.2km/h 56.7% 0.00in /  0mm 343 W/m2
13:49 70 °F /  21.1 °C 54 °F /  12.2 °C 30.22in /  1023.2hPa Calm   2mph /  3.2km/h 56.8% 0.00in /  0mm 355 W/m2
13:54 70.3 °F /  21.3 °C 54.8 °F /  12.7 °C 30.22in /  1023.2hPa Calm   2mph /  3.2km/h 58% 0.00in /  0mm 371 W/m2
13:59 70.5 °F /  21.4 °C 55.1 °F /  12.8 °C 30.22in /  1023.2hPa Calm   2mph /  3.2km/h 58.2% 0.00in /  0mm 362 W/m2
14:04 70.4 °F /  21.3 °C 53.8 °F /  12.1 °C 30.22in /  1023.2hPa Calm   2mph /  3.2km/h 55.5% 0.00in /  0mm 353 W/m2
14:09 70.4 °F /  21.3 °C 54.9 °F /  12.7 °C 30.22in /  1023.2hPa Calm     58% 0.00in /  0mm 339 W/m2
14:14 70.5 °F /  21.4 °C 55 °F /  12.8 °C 30.22in /  1023.2hPa Calm   1mph /  1.6km/h 57.9% 0.00in /  0mm 329 W/m2
14:19 70.6 °F /  21.4 °C 54.3 °F /  12.4 °C 30.22in /  1023.2hPa Calm   1mph /  1.6km/h 56.3% 0.00in /  0mm 299 W/m2
14:24 70.6 °F /  21.4 °C 54.4 °F /  12.4 °C 30.21in /  1022.9hPa Calm   1mph /  1.6km/h 56.4% 0.00in /  0mm 285 W/m2
14:29 70.6 °F /  21.4 °C 54.9 °F /  12.7 °C 30.21in /  1022.9hPa North 0.1mph /  0.2km/h 3mph /  4.8km/h 57.5% 0.00in /  0mm 287 W/m2
14:34 70.6 °F /  21.4 °C 54.6 °F /  12.6 °C 30.21in /  1022.9hPa Calm   3mph /  4.8km/h 56.9% 0.00in /  0mm 279 W/m2
14:39 70.7 °F /  21.5 °C 54.6 °F /  12.6 °C 30.21in /  1022.9hPa Calm     56.7% 0.00in /  0mm 274 W/m2
14:44 70.6 °F /  21.4 °C 54 °F /  12.2 °C 30.21in /  1022.9hPa Calm     55.6% 0.00in /  0mm 276 W/m2
14:49 70.4 °F /  21.3 °C 54.1 °F /  12.3 °C 30.21in /  1022.9hPa Calm     56.1% 0.00in /  0mm 271 W/m2
14:54 70.2 °F /  21.2 °C 54.3 °F /  12.4 °C 30.20in /  1022.6hPa Calm     57.1% 0.00in /  0mm 246 W/m2
14:59 69.8 °F /  21 °C 53.9 °F /  12.2 °C 30.20in /  1022.6hPa Calm     56.9% 0.00in /  0mm 236 W/m2
15:04 69.6 °F /  20.9 °C 54.2 °F /  12.3 °C 30.20in /  1022.6hPa Calm   2mph /  3.2km/h 58.1% 0.00in /  0mm 244 W/m2
15:09 69.5 °F /  20.8 °C 54.3 °F /  12.4 °C 30.20in /  1022.6hPa Calm   2mph /  3.2km/h 58.6% 0.00in /  0mm 244 W/m2
15:14 69.4 °F /  20.8 °C 54.1 °F /  12.3 °C 30.20in /  1022.6hPa Calm   2mph /  3.2km/h 58.4% 0.00in /  0mm 227 W/m2
15:19 69.3 °F /  20.7 °C 54.6 °F /  12.6 °C 30.20in /  1022.6hPa Calm   2mph /  3.2km/h 59.5% 0.00in /  0mm 213 W/m2
15:24 69.3 °F /  20.7 °C 54.9 °F /  12.7 °C 30.19in /  1022.2hPa Calm   2mph /  3.2km/h 60.3% 0.00in /  0mm 206 W/m2
15:29 69.3 °F /  20.7 °C 54.9 °F /  12.7 °C 30.19in /  1022.2hPa Calm   2mph /  3.2km/h 60.2% 0.00in /  0mm 206 W/m2
15:34 69.4 °F /  20.8 °C 55.8 °F /  13.2 °C 30.19in /  1022.2hPa Calm   2mph /  3.2km/h 61.8% 0.00in /  0mm 199 W/m2
15:39 69.5 °F /  20.8 °C 55.2 °F /  12.9 °C 30.19in /  1022.2hPa Calm     60.3% 0.00in /  0mm 190 W/m2
15:44 69.6 °F /  20.9 °C 55.8 °F /  13.2 °C 30.19in /  1022.2hPa Calm   1mph /  1.6km/h 61.5% 0.00in /  0mm 186 W/m2
15:49 69.7 °F /  20.9 °C 55.7 °F /  13.2 °C 30.19in /  1022.2hPa Calm   1mph /  1.6km/h 61.1% 0.00in /  0mm 185 W/m2
15:54 69.8 °F /  21 °C 55.8 °F /  13.2 °C 30.19in /  1022.2hPa Calm   1mph /  1.6km/h 61% 0.00in /  0mm 192 W/m2
15:59 69.9 °F /  21.1 °C 56.3 °F /  13.5 °C 30.19in /  1022.2hPa Calm   1mph /  1.6km/h 61.9% 0.00in /  0mm 186 W/m2
16:00 70 °F /  21.1 °C 56.4 °F /  13.6 °C 30.19in /  1022.2hPa Calm   1mph /  1.6km/h 62% 0.00in /  0mm 186 W/m2
16:09 70 °F /  21.1 °C 56.2 °F /  13.4 °C 30.19in /  1022.2hPa North 0.2mph /  0.3km/h 2mph /  3.2km/h 61.6% 0.00in /  0mm 220 W/m2
16:14 69.9 °F /  21.1 °C 55.7 °F /  13.2 °C 30.19in /  1022.2hPa Calm   2mph /  3.2km/h 60.6% 0.00in /  0mm 202 W/m2
16:19 70 °F /  21.1 °C 56.3 °F /  13.5 °C 30.19in /  1022.2hPa Calm   2mph /  3.2km/h 61.8% 0.00in /  0mm 192 W/m2
16:24 70 °F /  21.1 °C 56.1 °F /  13.4 °C 30.18in /  1021.9hPa Calm   2mph /  3.2km/h 61.4% 0.00in /  0mm 169 W/m2
16:29 69.9 °F /  21.1 °C 56.1 °F /  13.4 °C 30.18in /  1021.9hPa Calm   2mph /  3.2km/h 61.5% 0.00in /  0mm 151 W/m2
16:34 69.9 °F /  21.1 °C 56.5 °F /  13.6 °C 30.18in /  1021.9hPa Calm   2mph /  3.2km/h 62.5% 0.00in /  0mm 151 W/m2
16:39 69.9 °F /  21.1 °C 56.4 °F /  13.6 °C 30.18in /  1021.9hPa Calm     62.2% 0.00in /  0mm 183 W/m2
16:44 70 °F /  21.1 °C 56.9 °F /  13.8 °C 30.18in /  1021.9hPa Calm     63.1% 0.00in /  0mm 165 W/m2
16:49 70 °F /  21.1 °C 56.2 °F /  13.4 °C 30.18in /  1021.9hPa Calm     61.6% 0.00in /  0mm 163 W/m2
16:54 70 °F /  21.1 °C 55.7 °F /  13.2 °C 30.17in /  1021.6hPa Calm   2mph /  3.2km/h 60.5% 0.00in /  0mm 139 W/m2
16:59 69.9 °F /  21.1 °C 55.4 °F /  13 °C 30.17in /  1021.6hPa Calm   2mph /  3.2km/h 60% 0.00in /  0mm 123 W/m2
17:04 70 °F /  21.1 °C 56.4 °F /  13.6 °C 30.17in /  1021.6hPa Calm   2mph /  3.2km/h 62% 0.00in /  0mm 111 W/m2
17:09 70.1 °F /  21.2 °C 56.1 °F /  13.4 °C 30.17in /  1021.6hPa Calm     61.2% 0.00in /  0mm 86 W/m2
17:14 70.1 °F /  21.2 °C 56 °F /  13.3 °C 30.17in /  1021.6hPa Calm     61% 0.00in /  0mm 62 W/m2
17:19 69.9 °F /  21.1 °C 55.7 °F /  13.2 °C 30.17in /  1021.6hPa ENE 0.3mph /  0.5km/h 4mph /  6.4km/h 60.7% 0.00in /  0mm 56 W/m2
17:24 69.7 °F /  20.9 °C 55.9 °F /  13.3 °C 30.17in /  1021.6hPa Calm   4mph /  6.4km/h 61.6% 0.00in /  0mm 49 W/m2
17:29 69.6 °F /  20.9 °C 56.2 °F /  13.4 °C 30.16in /  1021.2hPa Calm   4mph /  6.4km/h 62.6% 0.00in /  0mm 49 W/m2
17:34 69.4 °F /  20.8 °C 56.3 °F /  13.5 °C 30.16in /  1021.2hPa Calm   4mph /  6.4km/h 63% 0.00in /  0mm 47 W/m2
17:39 69.4 °F /  20.8 °C 56.4 °F /  13.6 °C 30.16in /  1021.2hPa Calm     63.5% 0.00in /  0mm 46 W/m2
17:44 69.3 °F /  20.7 °C 56.6 °F /  13.7 °C 30.16in /  1021.2hPa ESE 0.1mph /  0.2km/h 2mph /  3.2km/h 64% 0.00in /  0mm 44 W/m2
17:48 69.2 °F /  20.7 °C 56.6 °F /  13.7 °C 30.16in /  1021.2hPa Calm   2mph /  3.2km/h 64.2% 0.00in /  0mm 40 W/m2
17:53 69.1 °F /  20.6 °C 56.9 °F /  13.8 °C 30.16in /  1021.2hPa Calm   2mph /  3.2km/h 65.2% 0.00in /  0mm 39 W/m2
17:59 69 °F /  20.6 °C 56.8 °F /  13.8 °C 30.16in /  1021.2hPa ESE 0.2mph /  0.3km/h 2mph /  3.2km/h 65.1% 0.00in /  0mm 35 W/m2
18:04 68.9 °F /  20.5 °C 56.6 °F /  13.7 °C 30.15in /  1020.9hPa ESE 0.1mph /  0.2km/h 2mph /  3.2km/h 64.8% 0.00in /  0mm 32 W/m2
18:09 68.8 °F /  20.4 °C 56.4 °F /  13.6 °C 30.15in /  1020.9hPa ESE 0.1mph /  0.2km/h 2mph /  3.2km/h 64.6% 0.00in /  0mm 30 W/m2
18:14 68.7 °F /  20.4 °C 56.1 °F /  13.4 °C 30.16in /  1021.2hPa Calm   2mph /  3.2km/h 64.2% 0.00in /  0mm 26 W/m2
18:19 68.6 °F /  20.3 °C 56.2 °F /  13.4 °C 30.16in /  1021.2hPa Calm   2mph /  3.2km/h 64.5% 0.00in /  0mm 25 W/m2
18:24 68.5 °F /  20.3 °C 55.9 °F /  13.3 °C 30.15in /  1020.9hPa Calm   2mph /  3.2km/h 64% 0.00in /  0mm 21 W/m2
18:29 68.4 °F /  20.2 °C 55.9 °F /  13.3 °C 30.16in /  1021.2hPa Calm   2mph /  3.2km/h 64.2% 0.00in /  0mm 18 W/m2
18:34 68.3 °F /  20.2 °C 56.1 °F /  13.4 °C 30.16in /  1021.2hPa Calm   2mph /  3.2km/h 65% 0.00in /  0mm 14 W/m2
18:39 68.1 °F /  20.1 °C 56 °F /  13.3 °C 30.16in /  1021.2hPa Calm     65.2% 0.00in /  0mm 11 W/m2
18:44 68 °F /  20 °C 56.1 °F /  13.4 °C 30.16in /  1021.2hPa Calm     65.7% 0.00in /  0mm 9 W/m2
18:49 67.9 °F /  19.9 °C 56.1 °F /  13.4 °C 30.16in /  1021.2hPa Calm     66% 0.00in /  0mm 5 W/m2
18:54 67.7 °F /  19.8 °C 55.9 °F /  13.3 °C 30.16in /  1021.2hPa Calm   1mph /  1.6km/h 66% 0.00in /  0mm 0 W/m2
18:59 67.5 °F /  19.7 °C 56.2 °F /  13.4 °C 30.16in /  1021.2hPa Calm   1mph /  1.6km/h 67% 0.00in /  0mm 0 W/m2
19:04 67.3 °F /  19.6 °C 56 °F /  13.3 °C 30.15in /  1020.9hPa Calm   1mph /  1.6km/h 67% 0.00in /  0mm 0 W/m2
19:09 67.1 °F /  19.5 °C 56.2 °F /  13.4 °C 30.16in /  1021.2hPa Calm     67.9% 0.00in /  0mm 0 W/m2
19:14 66.9 °F /  19.4 °C 56 °F /  13.3 °C 30.15in /  1020.9hPa Calm     68% 0.00in /  0mm 0 W/m2
19:19 66.8 °F /  19.3 °C 56.2 °F /  13.4 °C 30.15in /  1020.9hPa Calm     68.9% 0.00in /  0mm 0 W/m2
19:24 66.6 °F /  19.2 °C 56.4 °F /  13.6 °C 30.15in /  1020.9hPa Calm     69.6% 0.00in /  0mm 0 W/m2
19:29 66.4 °F /  19.1 °C 56.4 °F /  13.6 °C 30.15in /  1020.9hPa Calm     70% 0.00in /  0mm 0 W/m2
19:34 66.2 °F /  19 °C 56.4 °F /  13.6 °C 30.15in /  1020.9hPa Calm     70.5% 0.00in /  0mm 0 W/m2
19:39 66 °F /  18.9 °C 56.4 °F /  13.6 °C 30.16in /  1021.2hPa Calm     71% 0.00in /  0mm 0 W/m2
19:44 65.8 °F /  18.8 °C 56.5 °F /  13.6 °C 30.16in /  1021.2hPa Calm   1mph /  1.6km/h 71.9% 0.00in /  0mm 0 W/m2
19:49 65.6 °F /  18.7 °C 56.3 °F /  13.5 °C 30.16in /  1021.2hPa Calm   1mph /  1.6km/h 72% 0.00in /  0mm 0 W/m2
19:54 65.3 °F /  18.5 °C 56.3 °F /  13.5 °C 30.16in /  1021.2hPa Calm   1mph /  1.6km/h 72.7% 0.00in /  0mm 0 W/m2
19:59 65.1 °F /  18.4 °C 56.3 °F /  13.5 °C 30.16in /  1021.2hPa Calm   1mph /  1.6km/h 73.2% 0.00in /  0mm 0 W/m2
20:00 64.9 °F /  18.3 °C 56.4 °F /  13.6 °C 30.16in /  1021.2hPa Calm   1mph /  1.6km/h 74% 0.00in /  0mm 0 W/m2
20:09 64.6 °F /  18.1 °C 56.5 °F /  13.6 °C 30.16in /  1021.2hPa Calm     74.9% 0.00in /  0mm 0 W/m2
20:14 64.4 °F /  18 °C 56.4 °F /  13.6 °C 30.16in /  1021.2hPa Calm     75% 0.00in /  0mm 0 W/m2
20:19 64.2 °F /  17.9 °C 56.5 °F /  13.6 °C 30.16in /  1021.2hPa Calm     75.9% 0.00in /  0mm 0 W/m2
20:24 64 °F /  17.8 °C 56.4 °F /  13.6 °C 30.16in /  1021.2hPa Calm     76% 0.00in /  0mm 0 W/m2
20:29 63.9 °F /  17.7 °C 56.5 °F /  13.6 °C 30.16in /  1021.2hPa Calm     77% 0.00in /  0mm 0 W/m2
20:34 63.7 °F /  17.6 °C 56.4 °F /  13.6 °C 30.16in /  1021.2hPa Calm     77.2% 0.00in /  0mm 0 W/m2
20:39 63.6 °F /  17.6 °C 56.6 °F /  13.7 °C 30.16in /  1021.2hPa Calm     78% 0.00in /  0mm 0 W/m2
20:44 63.4 °F /  17.4 °C 56.4 °F /  13.6 °C 30.16in /  1021.2hPa Calm     78% 0.00in /  0mm 0 W/m2
20:49 63.2 °F /  17.3 °C 56.3 °F /  13.5 °C 30.16in /  1021.2hPa Calm     78% 0.00in /  0mm 0 W/m2
20:54 63.1 °F /  17.3 °C 56.3 °F /  13.5 °C 30.16in /  1021.2hPa Calm     78.5% 0.00in /  0mm 0 W/m2
20:59 63 °F /  17.2 °C 56.4 °F /  13.6 °C 30.16in /  1021.2hPa Calm     79.1% 0.00in /  0mm 0 W/m2
21:04 62.8 °F /  17.1 °C 56.6 °F /  13.7 °C 30.16in /  1021.2hPa Calm     80% 0.00in /  0mm 0 W/m2
21:09 62.7 °F /  17.1 °C 56.5 °F /  13.6 °C 30.16in /  1021.2hPa Calm     80% 0.00in /  0mm 0 W/m2
21:14 62.6 °F /  17 °C 56.3 °F /  13.5 °C 30.15in /  1020.9hPa Calm     80% 0.00in /  0mm 0 W/m2
21:19 62.4 °F /  16.9 °C 56.2 °F /  13.4 °C 30.15in /  1020.9hPa Calm     80% 0.00in /  0mm 0 W/m2
21:24 62.3 °F /  16.8 °C 56.4 °F /  13.6 °C 30.15in /  1020.9hPa Calm     80.9% 0.00in /  0mm 0 W/m2
21:29 62.1 °F /  16.7 °C 56.3 °F /  13.5 °C 30.15in /  1020.9hPa Calm     81% 0.00in /  0mm 0 W/m2
21:34 62 °F /  16.7 °C 56.1 °F /  13.4 °C 30.15in /  1020.9hPa Calm     81% 0.00in /  0mm 0 W/m2
21:39 61.8 °F /  16.6 °C 56 °F /  13.3 °C 30.15in /  1020.9hPa Calm     81.2% 0.00in /  0mm 0 W/m2
21:44 61.7 °F /  16.5 °C 56.1 °F /  13.4 °C 30.15in /  1020.9hPa Calm     82% 0.00in /  0mm 0 W/m2
21:49 61.5 °F /  16.4 °C 56 °F /  13.3 °C 30.15in /  1020.9hPa Calm     82% 0.00in /  0mm 0 W/m2
21:54 61.4 °F /  16.3 °C 55.9 °F /  13.3 °C 30.15in /  1020.9hPa Calm     82.3% 0.00in /  0mm 0 W/m2
21:59 61.2 °F /  16.2 °C 56 °F /  13.3 °C 30.15in /  1020.9hPa Calm     83% 0.00in /  0mm 0 W/m2
22:04 61 °F /  16.1 °C 55.8 °F /  13.2 °C 30.14in /  1020.5hPa Calm     83% 0.00in /  0mm 0 W/m2
22:09 60.8 °F /  16 °C 55.9 °F /  13.3 °C 30.14in /  1020.5hPa Calm     83.7% 0.00in /  0mm 0 W/m2
22:14 60.7 °F /  15.9 °C 56 °F /  13.3 °C 30.14in /  1020.5hPa Calm     84.4% 0.00in /  0mm 0 W/m2
22:19 60.5 °F /  15.8 °C 56 °F /  13.3 °C 30.14in /  1020.5hPa Calm     84.9% 0.00in /  0mm 0 W/m2
22:20 60.5 °F /  15.8 °C 56 °F /  13.3 °C 30.14in /  1020.5hPa Calm     85% 0.00in /  0mm 0 W/m2
22:30 60.3 °F /  15.7 °C 55.8 °F /  13.2 °C 30.14in /  1020.5hPa Calm     85% 0.00in /  0mm 0 W/m2
23:00 59.7 °F /  15.4 °C 55.8 °F /  13.2 °C 30.13in /  1020.2hPa Calm     87% 0.00in /  0mm 0 W/m2
23:30 59.5 °F /  15.3 °C 56 °F /  13.3 °C 30.12in /  1019.9hPa Calm     88% 0.00in /  0mm 0 W/m2
Hartford County Weather
Compliments of Weather Underground - 2 mb